sensor_id;sensor_type;location;lat;lon;timestamp;P1;durP1;ratioP1;P2;durP2;ratioP2
59302;SDS011;45074;52.764;6.896;2023-03-24T00:02:08;9.40;;;3.58;;
59302;SDS011;45074;52.764;6.896;2023-03-24T00:04:35;11.25;;;4.15;;
59302;SDS011;45074;52.764;6.896;2023-03-24T00:07:03;13.85;;;4.35;;
59302;SDS011;45074;52.764;6.896;2023-03-24T00:09:29;9.50;;;3.75;;
59302;SDS011;45074;52.764;6.896;2023-03-24T00:11:55;10.13;;;4.25;;
59302;SDS011;45074;52.764;6.896;2023-03-24T00:14:21;9.55;;;3.78;;
59302;SDS011;45074;52.764;6.896;2023-03-24T00:16:48;10.93;;;4.30;;
59302;SDS011;45074;52.764;6.896;2023-03-24T00:19:14;8.57;;;3.80;;
59302;SDS011;45074;52.764;6.896;2023-03-24T00:21:41;10.52;;;3.80;;
59302;SDS011;45074;52.764;6.896;2023-03-24T00:24:08;9.55;;;4.00;;
59302;SDS011;45074;52.764;6.896;2023-03-24T00:26:36;8.88;;;4.30;;
59302;SDS011;45074;52.764;6.896;2023-03-24T00:29:04;9.25;;;4.10;;
59302;SDS011;45074;52.764;6.896;2023-03-24T00:31:31;7.03;;;3.63;;
59302;SDS011;45074;52.764;6.896;2023-03-24T00:33:57;7.65;;;3.83;;
59302;SDS011;45074;52.764;6.896;2023-03-24T00:36:26;8.18;;;3.67;;
59302;SDS011;45074;52.764;6.896;2023-03-24T00:38:54;8.05;;;4.00;;
59302;SDS011;45074;52.764;6.896;2023-03-24T00:41:20;10.77;;;4.10;;
59302;SDS011;45074;52.764;6.896;2023-03-24T00:43:49;11.10;;;4.05;;
59302;SDS011;45074;52.764;6.896;2023-03-24T00:46:15;9.65;;;4.20;;
59302;SDS011;45074;52.764;6.896;2023-03-24T00:48:58;9.60;;;4.30;;
59302;SDS011;45074;52.764;6.896;2023-03-24T00:51:27;7.82;;;3.72;;
59302;SDS011;45074;52.764;6.896;2023-03-24T00:53:54;8.63;;;4.22;;
59302;SDS011;45074;52.764;6.896;2023-03-24T00:56:25;8.65;;;3.70;;
59302;SDS011;45074;52.764;6.896;2023-03-24T00:58:52;8.95;;;3.88;;
59302;SDS011;45074;52.764;6.896;2023-03-24T01:01:21;9.43;;;3.90;;
59302;SDS011;45074;52.764;6.896;2023-03-24T01:03:49;10.15;;;3.53;;
59302;SDS011;45074;52.764;6.896;2023-03-24T01:06:16;9.45;;;3.70;;
59302;SDS011;45074;52.764;6.896;2023-03-24T01:08:43;10.82;;;3.90;;
59302;SDS011;45074;52.764;6.896;2023-03-24T01:11:10;9.75;;;4.05;;
59302;SDS011;45074;52.764;6.896;2023-03-24T01:13:37;7.70;;;3.75;;
59302;SDS011;45074;52.764;6.896;2023-03-24T01:16:04;8.75;;;3.80;;
59302;SDS011;45074;52.764;6.896;2023-03-24T01:18:30;9.32;;;3.90;;
59302;SDS011;45074;52.764;6.896;2023-03-24T01:20:56;7.47;;;3.58;;
59302;SDS011;45074;52.764;6.896;2023-03-24T01:23:23;8.82;;;4.30;;
59302;SDS011;45074;52.764;6.896;2023-03-24T01:25:50;10.82;;;3.90;;
59302;SDS011;45074;52.764;6.896;2023-03-24T01:28:18;7.40;;;4.07;;
59302;SDS011;45074;52.764;6.896;2023-03-24T01:30:48;8.23;;;3.80;;
59302;SDS011;45074;52.764;6.896;2023-03-24T01:33:14;7.05;;;3.72;;
59302;SDS011;45074;52.764;6.896;2023-03-24T01:35:40;8.50;;;4.10;;
59302;SDS011;45074;52.764;6.896;2023-03-24T01:38:06;10.43;;;4.55;;
59302;SDS011;45074;52.764;6.896;2023-03-24T01:40:34;8.52;;;4.22;;
59302;SDS011;45074;52.764;6.896;2023-03-24T01:43:01;8.68;;;4.05;;
59302;SDS011;45074;52.764;6.896;2023-03-24T01:48:17;9.65;;;4.80;;
59302;SDS011;45074;52.764;6.896;2023-03-24T01:50:51;7.03;;;3.95;;
59302;SDS011;45074;52.764;6.896;2023-03-24T01:53:25;10.32;;;4.50;;
59302;SDS011;45074;52.764;6.896;2023-03-24T01:55:52;8.35;;;4.38;;
59302;SDS011;45074;52.764;6.896;2023-03-24T01:58:19;9.88;;;4.72;;
59302;SDS011;45074;52.764;6.896;2023-03-24T02:00:45;8.70;;;4.43;;
59302;SDS011;45074;52.764;6.896;2023-03-24T02:03:12;8.57;;;4.43;;
59302;SDS011;45074;52.764;6.896;2023-03-24T02:05:42;11.25;;;4.82;;
59302;SDS011;45074;52.764;6.896;2023-03-24T02:10:36;8.63;;;4.60;;
59302;SDS011;45074;52.764;6.896;2023-03-24T02:13:03;8.00;;;4.40;;
59302;SDS011;45074;52.764;6.896;2023-03-24T02:15:29;9.70;;;4.82;;
59302;SDS011;45074;52.764;6.896;2023-03-24T02:18:04;10.15;;;5.20;;
59302;SDS011;45074;52.764;6.896;2023-03-24T02:23:42;8.07;;;4.68;;
59302;SDS011;45074;52.764;6.896;2023-03-24T02:29:46;10.95;;;4.93;;
59302;SDS011;45074;52.764;6.896;2023-03-24T02:32:52;7.40;;;4.50;;
59302;SDS011;45074;52.764;6.896;2023-03-24T02:35:33;8.48;;;5.07;;
59302;SDS011;45074;52.764;6.896;2023-03-24T02:43:52;8.57;;;4.68;;
59302;SDS011;45074;52.764;6.896;2023-03-24T02:46:44;9.05;;;5.28;;
59302;SDS011;45074;52.764;6.896;2023-03-24T02:55:14;7.72;;;4.70;;
59302;SDS011;45074;52.764;6.896;2023-03-24T03:00:54;9.40;;;4.60;;
59302;SDS011;45074;52.764;6.896;2023-03-24T03:03:22;7.88;;;4.43;;
59302;SDS011;45074;52.764;6.896;2023-03-24T03:05:52;7.75;;;4.53;;
59302;SDS011;45074;52.764;6.896;2023-03-24T03:10:58;7.40;;;4.45;;
59302;SDS011;45074;52.764;6.896;2023-03-24T03:15:53;8.63;;;4.90;;
59302;SDS011;45074;52.764;6.896;2023-03-24T03:19:05;8.00;;;4.70;;
59302;SDS011;45074;52.764;6.896;2023-03-24T03:21:14;7.75;;;4.85;;
59302;SDS011;45074;52.764;6.896;2023-03-24T03:23:48;8.27;;;5.00;;
59302;SDS011;45074;52.764;6.896;2023-03-24T03:26:18;8.07;;;4.72;;
59302;SDS011;45074;52.764;6.896;2023-03-24T03:28:51;7.45;;;4.65;;
59302;SDS011;45074;52.764;6.896;2023-03-24T03:31:23;7.88;;;4.50;;
59302;SDS011;45074;52.764;6.896;2023-03-24T03:34:11;8.93;;;4.45;;
59302;SDS011;45074;52.764;6.896;2023-03-24T03:36:49;7.05;;;4.40;;
59302;SDS011;45074;52.764;6.896;2023-03-24T03:39:28;8.02;;;4.15;;
59302;SDS011;45074;52.764;6.896;2023-03-24T03:41:57;7.43;;;4.55;;
59302;SDS011;45074;52.764;6.896;2023-03-24T03:44:23;7.13;;;4.35;;
59302;SDS011;45074;52.764;6.896;2023-03-24T03:46:49;7.93;;;4.65;;
59302;SDS011;45074;52.764;6.896;2023-03-24T03:49:15;8.43;;;4.72;;
59302;SDS011;45074;52.764;6.896;2023-03-24T03:51:41;7.93;;;4.32;;
59302;SDS011;45074;52.764;6.896;2023-03-24T03:54:09;6.50;;;4.20;;
59302;SDS011;45074;52.764;6.896;2023-03-24T03:56:40;7.38;;;4.32;;
59302;SDS011;45074;52.764;6.896;2023-03-24T03:59:06;7.75;;;4.30;;
59302;SDS011;45074;52.764;6.896;2023-03-24T04:01:33;6.68;;;4.60;;
59302;SDS011;45074;52.764;6.896;2023-03-24T04:06:38;5.93;;;3.35;;
59302;SDS011;45074;52.764;6.896;2023-03-24T04:09:34;6.28;;;3.40;;
59302;SDS011;45074;52.764;6.896;2023-03-24T04:15:10;5.78;;;3.28;;
59302;SDS011;45074;52.764;6.896;2023-03-24T04:23:14;7.50;;;2.80;;
59302;SDS011;45074;52.764;6.896;2023-03-24T04:26:00;5.28;;;2.60;;
59302;SDS011;45074;52.764;6.896;2023-03-24T04:33:56;8.55;;;2.80;;
59302;SDS011;45074;52.764;6.896;2023-03-24T04:36:35;7.20;;;2.60;;
59302;SDS011;45074;52.764;6.896;2023-03-24T04:39:11;6.43;;;2.65;;
59302;SDS011;45074;52.764;6.896;2023-03-24T04:41:43;5.45;;;2.47;;
59302;SDS011;45074;52.764;6.896;2023-03-24T04:44:11;8.40;;;2.45;;
59302;SDS011;45074;52.764;6.896;2023-03-24T04:46:41;9.23;;;2.30;;
59302;SDS011;45074;52.764;6.896;2023-03-24T04:49:07;5.57;;;1.92;;
59302;SDS011;45074;52.764;6.896;2023-03-24T04:51:33;6.32;;;2.10;;
59302;SDS011;45074;52.764;6.896;2023-03-24T04:53:59;8.70;;;2.13;;
59302;SDS011;45074;52.764;6.896;2023-03-24T04:59:03;7.60;;;2.03;;
59302;SDS011;45074;52.764;6.896;2023-03-24T05:01:29;6.13;;;1.80;;
59302;SDS011;45074;52.764;6.896;2023-03-24T05:03:55;8.52;;;2.28;;
59302;SDS011;45074;52.764;6.896;2023-03-24T05:06:22;8.30;;;1.90;;
59302;SDS011;45074;52.764;6.896;2023-03-24T05:08:49;7.60;;;2.38;;
59302;SDS011;45074;52.764;6.896;2023-03-24T05:11:16;7.50;;;2.15;;
59302;SDS011;45074;52.764;6.896;2023-03-24T05:13:43;8.80;;;2.50;;
59302;SDS011;45074;52.764;6.896;2023-03-24T05:16:09;6.25;;;2.20;;
59302;SDS011;45074;52.764;6.896;2023-03-24T05:18:35;9.05;;;2.67;;
59302;SDS011;45074;52.764;6.896;2023-03-24T05:21:01;8.05;;;2.70;;
59302;SDS011;45074;52.764;6.896;2023-03-24T05:23:26;8.90;;;2.40;;
59302;SDS011;45074;52.764;6.896;2023-03-24T05:25:52;11.25;;;3.08;;
59302;SDS011;45074;52.764;6.896;2023-03-24T05:28:18;10.82;;;2.78;;
59302;SDS011;45074;52.764;6.896;2023-03-24T05:30:43;5.68;;;2.30;;
59302;SDS011;45074;52.764;6.896;2023-03-24T05:33:09;9.05;;;2.65;;
59302;SDS011;45074;52.764;6.896;2023-03-24T05:35:35;10.38;;;2.83;;
59302;SDS011;45074;52.764;6.896;2023-03-24T05:38:00;9.73;;;2.72;;
59302;SDS011;45074;52.764;6.896;2023-03-24T05:40:26;10.50;;;3.00;;
59302;SDS011;45074;52.764;6.896;2023-03-24T05:42:51;9.73;;;2.90;;
59302;SDS011;45074;52.764;6.896;2023-03-24T05:45:17;11.95;;;2.60;;
59302;SDS011;45074;52.764;6.896;2023-03-24T05:47:43;8.25;;;2.70;;
59302;SDS011;45074;52.764;6.896;2023-03-24T05:50:11;8.68;;;2.55;;
59302;SDS011;45074;52.764;6.896;2023-03-24T05:52:37;7.88;;;2.53;;
59302;SDS011;45074;52.764;6.896;2023-03-24T05:55:03;8.18;;;2.47;;
59302;SDS011;45074;52.764;6.896;2023-03-24T05:57:29;11.52;;;2.45;;
59302;SDS011;45074;52.764;6.896;2023-03-24T05:59:58;9.90;;;2.65;;
59302;SDS011;45074;52.764;6.896;2023-03-24T06:02:23;9.25;;;2.75;;
59302;SDS011;45074;52.764;6.896;2023-03-24T06:04:49;9.80;;;2.63;;
59302;SDS011;45074;52.764;6.896;2023-03-24T06:07:15;9.93;;;2.63;;
59302;SDS011;45074;52.764;6.896;2023-03-24T06:09:42;8.50;;;2.75;;
59302;SDS011;45074;52.764;6.896;2023-03-24T06:12:11;10.60;;;2.65;;
59302;SDS011;45074;52.764;6.896;2023-03-24T06:14:37;9.00;;;2.50;;
59302;SDS011;45074;52.764;6.896;2023-03-24T06:17:06;7.03;;;2.30;;
59302;SDS011;45074;52.764;6.896;2023-03-24T06:19:32;9.52;;;2.25;;
59302;SDS011;45074;52.764;6.896;2023-03-24T06:21:58;8.07;;;2.60;;
59302;SDS011;45074;52.764;6.896;2023-03-24T06:24:26;7.80;;;2.30;;
59302;SDS011;45074;52.764;6.896;2023-03-24T06:26:53;8.30;;;2.30;;
59302;SDS011;45074;52.764;6.896;2023-03-24T06:29:26;8.80;;;2.10;;
59302;SDS011;45074;52.764;6.896;2023-03-24T06:31:53;8.85;;;2.40;;
59302;SDS011;45074;52.764;6.896;2023-03-24T06:34:19;7.80;;;2.42;;
59302;SDS011;45074;52.764;6.896;2023-03-24T06:36:46;6.78;;;2.20;;
59302;SDS011;45074;52.764;6.896;2023-03-24T06:39:12;8.43;;;2.50;;
59302;SDS011;45074;52.764;6.896;2023-03-24T06:41:37;10.93;;;2.60;;
59302;SDS011;45074;52.764;6.896;2023-03-24T06:44:03;7.45;;;2.20;;
59302;SDS011;45074;52.764;6.896;2023-03-24T06:46:29;11.93;;;2.70;;
59302;SDS011;45074;52.764;6.896;2023-03-24T06:48:55;8.90;;;3.28;;
59302;SDS011;45074;52.764;6.896;2023-03-24T06:51:21;6.68;;;2.50;;
59302;SDS011;45074;52.764;6.896;2023-03-24T06:53:47;11.30;;;2.60;;
59302;SDS011;45074;52.764;6.896;2023-03-24T06:56:12;8.38;;;2.53;;
59302;SDS011;45074;52.764;6.896;2023-03-24T06:58:43;11.52;;;2.53;;
59302;SDS011;45074;52.764;6.896;2023-03-24T07:01:09;8.43;;;2.40;;
59302;SDS011;45074;52.764;6.896;2023-03-24T07:03:35;9.43;;;2.70;;
59302;SDS011;45074;52.764;6.896;2023-03-24T07:06:02;10.77;;;2.88;;
59302;SDS011;45074;52.764;6.896;2023-03-24T07:08:29;9.20;;;2.42;;
59302;SDS011;45074;52.764;6.896;2023-03-24T07:10:56;8.65;;;2.40;;
59302;SDS011;45074;52.764;6.896;2023-03-24T07:13:22;8.95;;;2.38;;
59302;SDS011;45074;52.764;6.896;2023-03-24T07:15:48;10.20;;;3.10;;
59302;SDS011;45074;52.764;6.896;2023-03-24T07:18:14;11.40;;;3.00;;
59302;SDS011;45074;52.764;6.896;2023-03-24T07:20:39;10.32;;;2.70;;
59302;SDS011;45074;52.764;6.896;2023-03-24T07:23:05;13.10;;;3.00;;
59302;SDS011;45074;52.764;6.896;2023-03-24T07:25:31;10.25;;;2.78;;
59302;SDS011;45074;52.764;6.896;2023-03-24T07:27:56;11.52;;;2.95;;
59302;SDS011;45074;52.764;6.896;2023-03-24T07:30:22;9.23;;;2.75;;
59302;SDS011;45074;52.764;6.896;2023-03-24T07:32:48;10.80;;;2.50;;
59302;SDS011;45074;52.764;6.896;2023-03-24T07:35:15;10.52;;;2.20;;
59302;SDS011;45074;52.764;6.896;2023-03-24T07:37:41;13.27;;;3.03;;
59302;SDS011;45074;52.764;6.896;2023-03-24T07:40:08;12.02;;;2.72;;
59302;SDS011;45074;52.764;6.896;2023-03-24T07:42:39;9.07;;;2.85;;
59302;SDS011;45074;52.764;6.896;2023-03-24T07:45:07;13.75;;;3.10;;
59302;SDS011;45074;52.764;6.896;2023-03-24T07:47:35;14.70;;;3.40;;
59302;SDS011;45074;52.764;6.896;2023-03-24T07:50:01;15.23;;;3.55;;
59302;SDS011;45074;52.764;6.896;2023-03-24T07:52:28;15.43;;;3.47;;
59302;SDS011;45074;52.764;6.896;2023-03-24T07:54:54;14.77;;;3.30;;
59302;SDS011;45074;52.764;6.896;2023-03-24T07:57:20;16.08;;;3.13;;
59302;SDS011;45074;52.764;6.896;2023-03-24T07:59:47;15.55;;;3.20;;
59302;SDS011;45074;52.764;6.896;2023-03-24T08:02:16;13.88;;;3.17;;
59302;SDS011;45074;52.764;6.896;2023-03-24T08:04:43;10.95;;;2.58;;
59302;SDS011;45074;52.764;6.896;2023-03-24T08:07:09;13.70;;;3.30;;
59302;SDS011;45074;52.764;6.896;2023-03-24T08:09:37;17.27;;;3.58;;
59302;SDS011;45074;52.764;6.896;2023-03-24T08:12:03;11.70;;;2.92;;
59302;SDS011;45074;52.764;6.896;2023-03-24T08:14:29;13.15;;;3.97;;
59302;SDS011;45074;52.764;6.896;2023-03-24T08:16:54;15.48;;;3.47;;
59302;SDS011;45074;52.764;6.896;2023-03-24T08:19:20;15.45;;;3.63;;
59302;SDS011;45074;52.764;6.896;2023-03-24T08:21:46;14.55;;;3.47;;
59302;SDS011;45074;52.764;6.896;2023-03-24T08:24:12;14.00;;;3.35;;
59302;SDS011;45074;52.764;6.896;2023-03-24T08:26:38;12.60;;;3.60;;
59302;SDS011;45074;52.764;6.896;2023-03-24T08:29:04;15.77;;;4.20;;
59302;SDS011;45074;52.764;6.896;2023-03-24T08:31:33;15.20;;;3.60;;
59302;SDS011;45074;52.764;6.896;2023-03-24T08:34:00;14.77;;;3.63;;
59302;SDS011;45074;52.764;6.896;2023-03-24T08:36:26;12.65;;;3.17;;
59302;SDS011;45074;52.764;6.896;2023-03-24T08:38:53;15.23;;;4.18;;
59302;SDS011;45074;52.764;6.896;2023-03-24T08:41:20;17.58;;;3.63;;
59302;SDS011;45074;52.764;6.896;2023-03-24T08:43:46;15.77;;;3.75;;
59302;SDS011;45074;52.764;6.896;2023-03-24T08:46:12;14.75;;;3.35;;
59302;SDS011;45074;52.764;6.896;2023-03-24T08:48:39;17.85;;;3.97;;
59302;SDS011;45074;52.764;6.896;2023-03-24T08:51:09;16.08;;;3.88;;
59302;SDS011;45074;52.764;6.896;2023-03-24T08:53:39;15.43;;;3.15;;
59302;SDS011;45074;52.764;6.896;2023-03-24T08:56:05;15.82;;;3.50;;
59302;SDS011;45074;52.764;6.896;2023-03-24T08:58:31;12.40;;;3.28;;
59302;SDS011;45074;52.764;6.896;2023-03-24T09:00:57;13.45;;;3.20;;
59302;SDS011;45074;52.764;6.896;2023-03-24T09:03:23;11.85;;;3.42;;
59302;SDS011;45074;52.764;6.896;2023-03-24T09:05:49;14.43;;;3.67;;
59302;SDS011;45074;52.764;6.896;2023-03-24T09:08:15;13.70;;;3.22;;
59302;SDS011;45074;52.764;6.896;2023-03-24T09:10:42;13.05;;;2.65;;
59302;SDS011;45074;52.764;6.896;2023-03-24T09:13:10;18.23;;;3.15;;
59302;SDS011;45074;52.764;6.896;2023-03-24T09:15:36;13.52;;;3.13;;
59302;SDS011;45074;52.764;6.896;2023-03-24T09:18:02;17.40;;;2.85;;
59302;SDS011;45074;52.764;6.896;2023-03-24T09:20:28;12.80;;;2.88;;
59302;SDS011;45074;52.764;6.896;2023-03-24T09:22:54;13.15;;;2.97;;
59302;SDS011;45074;52.764;6.896;2023-03-24T09:25:21;16.02;;;2.97;;
59302;SDS011;45074;52.764;6.896;2023-03-24T09:27:47;13.05;;;2.70;;
59302;SDS011;45074;52.764;6.896;2023-03-24T09:30:15;13.27;;;3.03;;
59302;SDS011;45074;52.764;6.896;2023-03-24T09:32:41;10.35;;;2.50;;
59302;SDS011;45074;52.764;6.896;2023-03-24T09:35:08;13.10;;;2.92;;
59302;SDS011;45074;52.764;6.896;2023-03-24T09:37:35;15.18;;;3.05;;
59302;SDS011;45074;52.764;6.896;2023-03-24T09:40:02;12.05;;;2.58;;
59302;SDS011;45074;52.764;6.896;2023-03-24T09:42:31;10.38;;;2.50;;
59302;SDS011;45074;52.764;6.896;2023-03-24T09:45:02;13.88;;;2.72;;
59302;SDS011;45074;52.764;6.896;2023-03-24T09:47:43;12.00;;;2.42;;
59302;SDS011;45074;52.764;6.896;2023-03-24T09:50:22;12.82;;;2.78;;
59302;SDS011;45074;52.764;6.896;2023-03-24T09:52:51;10.45;;;2.63;;
59302;SDS011;45074;52.764;6.896;2023-03-24T09:55:21;12.80;;;2.88;;
59302;SDS011;45074;52.764;6.896;2023-03-24T09:57:49;12.68;;;2.95;;
59302;SDS011;45074;52.764;6.896;2023-03-24T10:00:27;11.95;;;3.13;;
59302;SDS011;45074;52.764;6.896;2023-03-24T10:03:10;13.10;;;2.90;;
59302;SDS011;45074;52.764;6.896;2023-03-24T10:05:46;8.85;;;2.38;;
59302;SDS011;45074;52.764;6.896;2023-03-24T10:08:36;13.23;;;2.40;;
59302;SDS011;45074;52.764;6.896;2023-03-24T10:19:48;11.13;;;2.58;;
59302;SDS011;45074;52.764;6.896;2023-03-24T10:22:49;13.65;;;2.30;;
59302;SDS011;45074;52.764;6.896;2023-03-24T10:25:33;8.65;;;1.98;;
59302;SDS011;45074;52.764;6.896;2023-03-24T10:31:12;11.02;;;2.20;;
59302;SDS011;45074;52.764;6.896;2023-03-24T10:33:43;10.27;;;2.20;;
59302;SDS011;45074;52.764;6.896;2023-03-24T10:36:19;11.52;;;2.65;;
59302;SDS011;45074;52.764;6.896;2023-03-24T10:38:45;10.13;;;2.50;;
59302;SDS011;45074;52.764;6.896;2023-03-24T10:41:14;10.65;;;2.47;;
59302;SDS011;45074;52.764;6.896;2023-03-24T10:43:45;10.98;;;2.10;;
59302;SDS011;45074;52.764;6.896;2023-03-24T10:46:19;11.05;;;2.15;;
59302;SDS011;45074;52.764;6.896;2023-03-24T10:48:48;8.80;;;2.10;;
59302;SDS011;45074;52.764;6.896;2023-03-24T10:51:20;10.07;;;2.10;;
59302;SDS011;45074;52.764;6.896;2023-03-24T10:53:50;9.63;;;2.22;;
59302;SDS011;45074;52.764;6.896;2023-03-24T10:56:41;8.85;;;2.30;;
59302;SDS011;45074;52.764;6.896;2023-03-24T11:04:39;9.32;;;2.25;;
59302;SDS011;45074;52.764;6.896;2023-03-24T11:09:38;12.43;;;2.17;;
59302;SDS011;45074;52.764;6.896;2023-03-24T11:12:23;8.77;;;2.25;;
59302;SDS011;45074;52.764;6.896;2023-03-24T11:14:50;13.10;;;2.42;;
59302;SDS011;45074;52.764;6.896;2023-03-24T11:17:24;9.68;;;2.03;;
59302;SDS011;45074;52.764;6.896;2023-03-24T11:19:52;10.70;;;2.15;;
59302;SDS011;45074;52.764;6.896;2023-03-24T11:22:19;7.25;;;1.80;;
59302;SDS011;45074;52.764;6.896;2023-03-24T11:24:46;7.88;;;2.05;;
59302;SDS011;45074;52.764;6.896;2023-03-24T11:27:15;7.85;;;2.20;;
59302;SDS011;45074;52.764;6.896;2023-03-24T11:29:42;8.23;;;1.92;;
59302;SDS011;45074;52.764;6.896;2023-03-24T11:34:44;9.23;;;2.08;;
59302;SDS011;45074;52.764;6.896;2023-03-24T11:37:13;9.45;;;2.30;;
59302;SDS011;45074;52.764;6.896;2023-03-24T11:39:43;11.45;;;2.20;;
59302;SDS011;45074;52.764;6.896;2023-03-24T11:47:05;5.80;;;1.90;;
59302;SDS011;45074;52.764;6.896;2023-03-24T11:52:27;11.20;;;2.60;;
59302;SDS011;45074;52.764;6.896;2023-03-24T11:54:55;6.88;;;2.10;;
59302;SDS011;45074;52.764;6.896;2023-03-24T11:57:27;8.80;;;2.20;;
59302;SDS011;45074;52.764;6.896;2023-03-24T12:00:21;9.55;;;2.38;;
59302;SDS011;45074;52.764;6.896;2023-03-24T12:05:20;11.30;;;2.40;;
59302;SDS011;45074;52.764;6.896;2023-03-24T12:18:41;9.73;;;2.45;;
59302;SDS011;45074;52.764;6.896;2023-03-24T12:21:21;10.38;;;2.65;;
59302;SDS011;45074;52.764;6.896;2023-03-24T12:43:43;8.73;;;2.20;;
59302;SDS011;45074;52.764;6.896;2023-03-24T12:45:45;7.65;;;1.70;;
59302;SDS011;45074;52.764;6.896;2023-03-24T12:48:28;7.63;;;1.90;;
59302;SDS011;45074;52.764;6.896;2023-03-24T12:56:54;8.93;;;1.73;;
59302;SDS011;45074;52.764;6.896;2023-03-24T12:59:31;9.02;;;1.85;;
59302;SDS011;45074;52.764;6.896;2023-03-24T13:02:12;8.02;;;1.95;;
59302;SDS011;45074;52.764;6.896;2023-03-24T13:04:59;7.60;;;1.83;;
59302;SDS011;45074;52.764;6.896;2023-03-24T13:07:29;6.22;;;1.70;;
59302;SDS011;45074;52.764;6.896;2023-03-24T13:10:06;8.13;;;1.90;;
59302;SDS011;45074;52.764;6.896;2023-03-24T13:12:39;7.72;;;2.25;;
59302;SDS011;45074;52.764;6.896;2023-03-24T13:15:19;8.20;;;1.98;;
59302;SDS011;45074;52.764;6.896;2023-03-24T13:18:06;6.93;;;2.03;;
59302;SDS011;45074;52.764;6.896;2023-03-24T13:23:35;9.18;;;1.75;;
59302;SDS011;45074;52.764;6.896;2023-03-24T13:27:09;10.35;;;2.33;;
59302;SDS011;45074;52.764;6.896;2023-03-24T13:37:45;7.55;;;2.05;;
59302;SDS011;45074;52.764;6.896;2023-03-24T13:40:37;6.75;;;1.85;;
59302;SDS011;45074;52.764;6.896;2023-03-24T13:43:11;7.40;;;1.80;;
59302;SDS011;45074;52.764;6.896;2023-03-24T13:45:45;6.18;;;1.70;;
59302;SDS011;45074;52.764;6.896;2023-03-24T13:50:39;6.05;;;1.70;;
59302;SDS011;45074;52.764;6.896;2023-03-24T13:53:37;8.18;;;1.88;;
59302;SDS011;45074;52.764;6.896;2023-03-24T13:56:07;6.63;;;1.60;;
59302;SDS011;45074;52.764;6.896;2023-03-24T14:01:39;4.70;;;1.60;;
59302;SDS011;45074;52.764;6.896;2023-03-24T14:06:55;6.60;;;1.60;;
59302;SDS011;45074;52.764;6.896;2023-03-24T14:09:27;7.13;;;1.80;;
59302;SDS011;45074;52.764;6.896;2023-03-24T14:14:24;6.15;;;1.73;;
59302;SDS011;45074;52.764;6.896;2023-03-24T14:22:34;6.05;;;1.70;;
59302;SDS011;45074;52.764;6.896;2023-03-24T14:25:05;6.63;;;1.75;;
59302;SDS011;45074;52.764;6.896;2023-03-24T14:27:52;6.13;;;1.90;;
59302;SDS011;45074;52.764;6.896;2023-03-24T14:30:30;6.60;;;1.83;;
59302;SDS011;45074;52.764;6.896;2023-03-24T14:32:58;5.80;;;1.80;;
59302;SDS011;45074;52.764;6.896;2023-03-24T14:35:44;7.45;;;1.83;;
59302;SDS011;45074;52.764;6.896;2023-03-24T14:40:43;6.80;;;2.10;;
59302;SDS011;45074;52.764;6.896;2023-03-24T14:48:30;9.27;;;2.10;;
59302;SDS011;45074;52.764;6.896;2023-03-24T14:54:11;8.57;;;2.28;;
59302;SDS011;45074;52.764;6.896;2023-03-24T14:56:40;9.38;;;2.70;;
59302;SDS011;45074;52.764;6.896;2023-03-24T14:59:17;9.18;;;2.42;;
59302;SDS011;45074;52.764;6.896;2023-03-24T15:01:53;7.88;;;2.35;;
59302;SDS011;45074;52.764;6.896;2023-03-24T15:04:30;11.30;;;2.90;;
59302;SDS011;45074;52.764;6.896;2023-03-24T15:06:57;10.10;;;2.40;;
59302;SDS011;45074;52.764;6.896;2023-03-24T15:09:28;9.93;;;2.53;;
59302;SDS011;45074;52.764;6.896;2023-03-24T15:11:53;9.70;;;2.70;;
59302;SDS011;45074;52.764;6.896;2023-03-24T15:14:23;8.35;;;2.53;;
59302;SDS011;45074;52.764;6.896;2023-03-24T15:16:54;8.95;;;2.67;;
59302;SDS011;45074;52.764;6.896;2023-03-24T15:19:30;8.30;;;2.60;;
59302;SDS011;45074;52.764;6.896;2023-03-24T15:24:25;7.97;;;2.15;;
59302;SDS011;45074;52.764;6.896;2023-03-24T15:26:54;10.00;;;2.40;;
59302;SDS011;45074;52.764;6.896;2023-03-24T15:29:38;6.43;;;1.95;;
59302;SDS011;45074;52.764;6.896;2023-03-24T15:32:06;6.65;;;1.85;;
59302;SDS011;45074;52.764;6.896;2023-03-24T15:34:39;7.90;;;2.03;;
59302;SDS011;45074;52.764;6.896;2023-03-24T15:37:18;5.95;;;1.77;;
59302;SDS011;45074;52.764;6.896;2023-03-24T15:39:49;8.30;;;2.10;;
59302;SDS011;45074;52.764;6.896;2023-03-24T15:42:17;7.63;;;2.45;;
59302;SDS011;45074;52.764;6.896;2023-03-24T15:44:47;5.80;;;1.60;;
59302;SDS011;45074;52.764;6.896;2023-03-24T15:47:16;7.85;;;1.98;;
59302;SDS011;45074;52.764;6.896;2023-03-24T15:49:48;6.63;;;1.67;;
59302;SDS011;45074;52.764;6.896;2023-03-24T15:52:26;5.43;;;1.70;;
59302;SDS011;45074;52.764;6.896;2023-03-24T15:54:57;8.77;;;2.20;;
59302;SDS011;45074;52.764;6.896;2023-03-24T15:57:38;5.72;;;1.63;;
59302;SDS011;45074;52.764;6.896;2023-03-24T16:00:07;5.82;;;2.10;;
59302;SDS011;45074;52.764;6.896;2023-03-24T16:02:41;7.32;;;1.67;;
59302;SDS011;45074;52.764;6.896;2023-03-24T16:05:30;5.75;;;1.58;;
59302;SDS011;45074;52.764;6.896;2023-03-24T16:08:06;5.35;;;2.00;;
59302;SDS011;45074;52.764;6.896;2023-03-24T16:10:59;7.13;;;2.10;;
59302;SDS011;45074;52.764;6.896;2023-03-24T16:13:36;5.18;;;1.80;;
59302;SDS011;45074;52.764;6.896;2023-03-24T16:16:36;7.13;;;2.00;;
59302;SDS011;45074;52.764;6.896;2023-03-24T16:19:00;5.15;;;2.13;;
59302;SDS011;45074;52.764;6.896;2023-03-24T16:21:26;7.75;;;2.15;;
59302;SDS011;45074;52.764;6.896;2023-03-24T16:23:54;5.93;;;2.17;;
59302;SDS011;45074;52.764;6.896;2023-03-24T16:28:48;7.60;;;2.38;;
59302;SDS011;45074;52.764;6.896;2023-03-24T16:31:18;7.47;;;2.78;;
59302;SDS011;45074;52.764;6.896;2023-03-24T16:33:50;5.95;;;2.60;;
59302;SDS011;45074;52.764;6.896;2023-03-24T16:36:17;7.13;;;2.60;;
59302;SDS011;45074;52.764;6.896;2023-03-24T16:38:46;6.85;;;2.75;;
59302;SDS011;45074;52.764;6.896;2023-03-24T16:41:12;7.18;;;2.60;;
59302;SDS011;45074;52.764;6.896;2023-03-24T16:43:41;7.22;;;2.95;;
59302;SDS011;45074;52.764;6.896;2023-03-24T16:46:24;8.25;;;3.13;;
59302;SDS011;45074;52.764;6.896;2023-03-24T16:48:55;6.10;;;2.40;;
59302;SDS011;45074;52.764;6.896;2023-03-24T16:51:21;8.15;;;2.53;;
59302;SDS011;45074;52.764;6.896;2023-03-24T16:53:47;6.45;;;2.40;;
59302;SDS011;45074;52.764;6.896;2023-03-24T16:56:14;6.85;;;2.53;;
59302;SDS011;45074;52.764;6.896;2023-03-24T16:58:44;9.45;;;2.50;;
59302;SDS011;45074;52.764;6.896;2023-03-24T17:01:19;8.85;;;2.60;;
59302;SDS011;45074;52.764;6.896;2023-03-24T17:03:58;6.55;;;2.33;;
59302;SDS011;45074;52.764;6.896;2023-03-24T17:06:37;7.28;;;2.50;;
59302;SDS011;45074;52.764;6.896;2023-03-24T17:09:05;8.00;;;2.53;;
59302;SDS011;45074;52.764;6.896;2023-03-24T17:11:36;6.03;;;1.90;;
59302;SDS011;45074;52.764;6.896;2023-03-24T17:14:04;6.85;;;2.05;;
59302;SDS011;45074;52.764;6.896;2023-03-24T17:16:33;6.85;;;1.90;;
59302;SDS011;45074;52.764;6.896;2023-03-24T17:19:06;4.45;;;1.52;;
59302;SDS011;45074;52.764;6.896;2023-03-24T17:21:43;4.72;;;1.58;;
59302;SDS011;45074;52.764;6.896;2023-03-24T17:24:13;7.38;;;2.47;;
59302;SDS011;45074;52.764;6.896;2023-03-24T17:26:39;5.53;;;1.90;;
59302;SDS011;45074;52.764;6.896;2023-03-24T17:29:06;7.90;;;2.05;;
59302;SDS011;45074;52.764;6.896;2023-03-24T17:31:34;7.55;;;3.05;;
59302;SDS011;45074;52.764;6.896;2023-03-24T17:33:59;6.20;;;2.05;;
59302;SDS011;45074;52.764;6.896;2023-03-24T17:36:25;5.65;;;1.95;;
59302;SDS011;45074;52.764;6.896;2023-03-24T17:38:51;8.70;;;2.33;;
59302;SDS011;45074;52.764;6.896;2023-03-24T17:41:16;5.75;;;2.00;;
59302;SDS011;45074;52.764;6.896;2023-03-24T17:43:43;6.82;;;1.70;;
59302;SDS011;45074;52.764;6.896;2023-03-24T17:46:10;7.18;;;2.15;;